Time;durP1;ratioP1;P1;durP2;ratioP2;P2;SDS_P1;SDS_P2;PMS_P1;PMS_P2;Temp;Humidity;BMP_temperature;BMP_pressure;BME280_temperature;BME280_humidity;BME280_pressure;Samples;Min_cycle;Max_cycle;Signal;HPM_P1;HPM_P2
2021/07/16 00:00:18;;;;;;;;;;;22.80;50.10;;;;;;1655370;70;788;-57
2021/07/16 00:02:20;;;;;;;;;;;22.80;50.10;;;;;;1654178;70;1097;-58
2021/07/16 00:04:22;;;;;;;;;;;22.90;50.20;;;;;;1653445;70;709;-57
2021/07/16 00:06:24;;;;;;;;;;;22.80;50.20;;;;;;1659351;70;792;-57
2021/07/16 00:08:26;;;;;;;;;;;22.90;50.20;;;;;;1644830;70;694;-57
2021/07/16 00:10:28;;;;;;;;;;;22.80;50.10;;;;;;1651795;70;680;-58
2021/07/16 00:12:30;;;;;;;;;;;22.80;50.10;;;;;;1661422;70;1146;-57
2021/07/16 00:14:32;;;;;;;;;;;22.90;50.30;;;;;;1663773;70;2148;-58
2021/07/16 00:16:34;;;;;;;;;;;22.90;50.30;;;;;;1653778;70;742;-57
2021/07/16 00:18:36;;;;;;;;;;;22.80;50.20;;;;;;1659984;70;666;-58
2021/07/16 00:20:38;;;;;;;;;;;22.90;50.20;;;;;;1646577;70;731;-57
2021/07/16 00:22:40;;;;;;;;;;;22.80;50.20;;;;;;1657295;70;1110;-58
2021/07/16 00:24:42;;;;;;;;;;;22.90;50.20;;;;;;1656317;70;734;-57
2021/07/16 00:26:46;;;;;;;;;;;22.80;50.20;;;;;;1658052;70;769;-57
2021/07/16 00:28:47;;;;;;;;;;;22.90;50.20;;;;;;1660471;70;1617;-57
2021/07/16 00:30:50;;;;;;;;;;;22.90;50.20;;;;;;1670040;70;713;-57
2021/07/16 00:32:52;;;;;;;;;;;22.90;50.20;;;;;;1665574;70;1142;-57
2021/07/16 00:34:53;;;;;;;;;;;22.90;50.20;;;;;;1678672;70;1942;-57
2021/07/16 00:36:55;;;;;;;;;;;22.80;50.20;;;;;;1656258;70;685;-57
2021/07/16 00:38:57;;;;;;;;;;;22.90;50.20;;;;;;1663393;70;971;-57
2021/07/16 00:40:59;;;;;;;;;;;22.80;50.10;;;;;;1658642;70;665;-58
2021/07/16 00:43:01;;;;;;;;;;;22.80;50.20;;;;;;1653528;70;1162;-57
2021/07/16 00:45:04;;;;;;;;;;;22.80;50.10;;;;;;1652036;70;710;-57
2021/07/16 00:47:07;;;;;;;;;;;22.90;50.30;;;;;;1647464;70;710;-58
2021/07/16 00:49:09;;;;;;;;;;;22.90;50.20;;;;;;1660817;70;789;-56
2021/07/16 00:51:11;;;;;;;;;;;22.90;50.20;;;;;;1643670;70;680;-57
2021/07/16 00:53:14;;;;;;;;;;;22.80;50.10;;;;;;1650912;70;1106;-58
2021/07/16 00:55:16;;;;;;;;;;;22.90;50.20;;;;;;1657322;70;1931;-56
2021/07/16 00:57:18;;;;;;;;;;;22.90;50.30;;;;;;1667424;70;702;-57
2021/07/16 00:59:20;;;;;;;;;;;22.90;50.20;;;;;;1660310;70;722;-56
2021/07/16 01:01:22;;;;;;;;;;;22.90;50.20;;;;;;1661305;70;673;-58
2021/07/16 01:03:24;;;;;;;;;;;22.90;50.20;;;;;;1647142;70;766;-57
2021/07/16 01:05:26;;;;;;;;;;;22.90;50.20;;;;;;1653406;70;694;-57
2021/07/16 01:07:28;;;;;;;;;;;22.80;50.10;;;;;;1664692;70;803;-57
2021/07/16 01:09:30;;;;;;;;;;;22.90;50.20;;;;;;1651386;70;709;-56
2021/07/16 01:11:32;;;;;;;;;;;22.90;50.20;;;;;;1657285;70;1177;-57
2021/07/16 01:13:34;;;;;;;;;;;22.90;50.20;;;;;;1662971;70;1930;-58
2021/07/16 01:15:36;;;;;;;;;;;22.90;50.20;;;;;;1645721;70;714;-57
2021/07/16 01:17:38;;;;;;;;;;;22.90;50.20;;;;;;1609339;70;224553;-69
2021/07/16 01:19:59;;;;;;;;;;;22.90;50.30;;;;;;1595409;73;796;-69
2021/07/16 01:22:02;;;;;;;;;;;22.90;50.20;;;;;;1595535;73;688;-68
2021/07/16 01:24:06;;;;;;;;;;;22.90;50.20;;;;;;1595573;73;689;-68
2021/07/16 01:26:07;;;;;;;;;;;22.80;50.20;;;;;;1592848;73;1667;-69
2021/07/16 01:28:09;;;;;;;;;;;22.70;50.20;;;;;;1595606;73;1185;-67
2021/07/16 01:30:11;;;;;;;;;;;22.80;50.10;;;;;;1581631;73;774;-69
2021/07/16 01:32:14;;;;;;;;;;;22.90;50.30;;;;;;1581944;73;808;-68
2021/07/16 01:34:16;;;;;;;;;;;22.80;50.20;;;;;;1570271;73;1936;-69
2021/07/16 01:36:18;;;;;;;;;;;22.80;50.20;;;;;;1586589;73;797;-68
2021/07/16 01:38:20;;;;;;;;;;;22.80;50.20;;;;;;1581867;73;1164;-68
2021/07/16 01:40:22;;;;;;;;;;;22.80;50.20;;;;;;1595813;73;756;-69
2021/07/16 01:42:24;;;;;;;;;;;22.80;50.20;;;;;;1594995;74;682;-68
2021/07/16 01:44:26;;;;;;;;;;;22.90;50.30;;;;;;1595823;73;806;-69
2021/07/16 01:46:28;;;;;;;;;;;22.80;50.10;;;;;;1592522;73;1101;-68
2021/07/16 01:48:30;;;;;;;;;;;22.80;50.10;;;;;;1593950;73;786;-68
2021/07/16 01:50:32;;;;;;;;;;;22.90;50.20;;;;;;1585287;73;789;-68
2021/07/16 01:52:35;;;;;;;;;;;22.80;50.20;;;;;;1591486;73;740;-68
2021/07/16 01:54:37;;;;;;;;;;;22.90;50.30;;;;;;1591897;73;1913;-68
2021/07/16 01:56:39;;;;;;;;;;;22.80;50.10;;;;;;1587740;73;1134;-68
2021/07/16 01:58:41;;;;;;;;;;;22.80;50.10;;;;;;1589872;73;750;-68
2021/07/16 02:00:47;;;;;;;;;;;22.80;50.20;;;;;;1588089;73;672;-69
2021/07/16 02:02:49;;;;;;;;;;;22.80;50.20;;;;;;1581579;73;698;-66
2021/07/16 02:04:51;;;;;;;;;;;22.90;50.20;;;;;;1588600;73;687;-69
2021/07/16 02:06:53;;;;;;;;;;;22.90;50.20;;;;;;1586440;73;1197;-68
2021/07/16 02:08:55;;;;;;;;;;;22.80;50.20;;;;;;1590912;73;784;-69
2021/07/16 02:10:57;;;;;;;;;;;22.80;50.20;;;;;;1595652;73;797;-68
2021/07/16 02:12:59;;;;;;;;;;;22.80;50.20;;;;;;1590586;73;743;-69
2021/07/16 02:15:01;;;;;;;;;;;22.70;50.10;;;;;;1587052;73;1952;-69
2021/07/16 02:17:03;;;;;;;;;;;22.70;50.20;;;;;;1596320;73;1153;-69
2021/07/16 02:19:05;;;;;;;;;;;22.80;50.10;;;;;;1583686;73;694;-68
2021/07/16 02:21:07;;;;;;;;;;;22.80;50.20;;;;;;1582516;73;718;-68
2021/07/16 02:23:13;;;;;;;;;;;22.80;50.10;;;;;;1581617;73;718;-68
2021/07/16 02:25:15;;;;;;;;;;;22.80;50.20;;;;;;1585828;73;835;-70
2021/07/16 02:27:18;;;;;;;;;;;22.90;50.20;;;;;;1581898;73;1253;-68
2021/07/16 02:29:19;;;;;;;;;;;22.80;50.20;;;;;;1582841;73;712;-69
2021/07/16 02:31:21;;;;;;;;;;;22.70;50.20;;;;;;1583246;73;813;-69
2021/07/16 02:33:23;;;;;;;;;;;22.90;50.20;;;;;;1589814;73;704;-67
2021/07/16 02:35:25;;;;;;;;;;;22.80;50.10;;;;;;1595424;73;1940;-68
2021/07/16 02:37:27;;;;;;;;;;;22.80;50.20;;;;;;1595633;73;1123;-69
2021/07/16 02:39:29;;;;;;;;;;;22.90;50.20;;;;;;1595561;73;719;-68
2021/07/16 02:41:31;;;;;;;;;;;22.80;50.20;;;;;;1594082;73;716;-69
2021/07/16 02:43:35;;;;;;;;;;;22.80;50.10;;;;;;1595504;73;772;-69
2021/07/16 02:45:36;;;;;;;;;;;22.90;50.30;;;;;;1595354;73;1663;-69
2021/07/16 02:47:38;;;;;;;;;;;22.90;50.20;;;;;;1595414;73;1133;-69
2021/07/16 02:49:40;;;;;;;;;;;22.80;50.20;;;;;;1595651;73;703;-67
2021/07/16 02:51:42;;;;;;;;;;;22.80;50.10;;;;;;1584115;73;771;-68
2021/07/16 02:53:44;;;;;;;;;;;22.80;50.20;;;;;;1595291;73;650;-69
2021/07/16 02:55:46;;;;;;;;;;;22.80;50.10;;;;;;1581769;73;1933;-69
2021/07/16 02:57:48;;;;;;;;;;;22.70;50.20;;;;;;1581977;73;1188;-68
2021/07/16 02:59:50;;;;;;;;;;;22.80;50.20;;;;;;1592851;73;809;-69
2021/07/16 03:01:58;;;;;;;;;;;22.80;50.10;;;;;;1590449;73;774;-69
2021/07/16 03:04:00;;;;;;;;;;;22.80;50.10;;;;;;1595703;73;717;-68
2021/07/16 03:06:02;;;;;;;;;;;22.70;50.20;;;;;;1595606;73;766;-68
2021/07/16 03:08:04;;;;;;;;;;;22.70;50.20;;;;;;1595766;73;1169;-68
2021/07/16 03:10:07;;;;;;;;;;;22.80;50.10;;;;;;1585190;73;700;-68
2021/07/16 03:12:09;;;;;;;;;;;22.90;50.30;;;;;;1594296;73;703;-69
2021/07/16 03:14:11;;;;;;;;;;;22.80;50.10;;;;;;1595647;73;1948;-68
2021/07/16 03:16:13;;;;;;;;;;;22.80;50.10;;;;;;1596429;73;728;-69
2021/07/16 03:18:16;;;;;;;;;;;22.80;50.10;;;;;;1595742;73;1089;-70
2021/07/16 03:20:19;;;;;;;;;;;22.80;50.10;;;;;;1586774;73;790;-68
2021/07/16 03:22:21;;;;;;;;;;;22.80;50.10;;;;;;1594920;73;753;-68
2021/07/16 03:24:23;;;;;;;;;;;22.80;50.10;;;;;;1595689;73;802;-68
2021/07/16 03:26:24;;;;;;;;;;;22.70;50.20;;;;;;1595660;73;1111;-68
2021/07/16 03:28:26;;;;;;;;;;;22.80;50.10;;;;;;1588568;73;709;-68
2021/07/16 03:30:29;;;;;;;;;;;22.80;50.10;;;;;;1589922;73;727;-68
2021/07/16 03:32:31;;;;;;;;;;;22.80;50.20;;;;;;1595508;73;736;-68
2021/07/16 03:34:32;;;;;;;;;;;22.80;50.10;;;;;;1594937;73;1932;-69
2021/07/16 03:36:34;;;;;;;;;;;22.80;50.20;;;;;;1595659;73;1171;-69
2021/07/16 03:38:37;;;;;;;;;;;22.80;50.20;;;;;;1595147;73;798;-70
2021/07/16 03:40:39;;;;;;;;;;;22.80;50.10;;;;;;1595726;73;787;-69
2021/07/16 03:42:41;;;;;;;;;;;22.80;50.20;;;;;;1595480;73;753;-69
2021/07/16 03:44:42;;;;;;;;;;;22.70;50.20;;;;;;1595555;73;757;-69
2021/07/16 03:46:44;;;;;;;;;;;22.70;50.10;;;;;;1589105;73;1151;-67
2021/07/16 03:48:46;;;;;;;;;;;22.80;50.10;;;;;;1588598;73;720;-69
2021/07/16 03:50:48;;;;;;;;;;;22.90;50.20;;;;;;1595438;73;703;-69
2021/07/16 03:52:51;;;;;;;;;;;22.80;50.10;;;;;;1595574;73;774;-68
2021/07/16 03:54:53;;;;;;;;;;;22.80;50.10;;;;;;1586765;73;1930;-69
2021/07/16 03:56:54;;;;;;;;;;;22.80;50.10;;;;;;1585745;73;1138;-69
2021/07/16 03:58:56;;;;;;;;;;;22.70;50.20;;;;;;1586255;73;782;-68
2021/07/16 04:00:58;;;;;;;;;;;22.80;50.10;;;;;;1593584;73;772;-68
2021/07/16 04:03:00;;;;;;;;;;;22.80;50.20;;;;;;1595695;73;804;-69
2021/07/16 04:05:02;;;;;;;;;;;22.80;50.20;;;;;;1593526;73;736;-69
2021/07/16 04:07:06;;;;;;;;;;;22.80;50.10;;;;;;1591400;73;1106;-70
2021/07/16 04:09:50;;;;;;;;;;;22.80;50.20;;;;;;1595700;73;676;-69
2021/07/16 04:11:14;;;;;;;;;;;22.80;50.10;;;;;;1574685;73;1343;-69
2021/07/16 04:13:16;;;;;;;;;;;22.70;50.20;;;;;;1595509;73;800;-69
2021/07/16 04:15:18;;;;;;;;;;;22.80;50.10;;;;;;1584053;73;1952;-70
2021/07/16 04:17:21;;;;;;;;;;;22.80;50.20;;;;;;1581436;73;1128;-68
2021/07/16 04:19:23;;;;;;;;;;;22.80;50.10;;;;;;1596305;73;843;-68
2021/07/16 04:21:24;;;;;;;;;;;22.80;50.20;;;;;;1596307;73;715;-68
2021/07/16 04:23:26;;;;;;;;;;;22.70;50.20;;;;;;1594276;73;832;-68
2021/07/16 04:25:29;;;;;;;;;;;22.80;50.20;;;;;;1587505;73;744;-69
2021/07/16 04:27:31;;;;;;;;;;;22.80;50.20;;;;;;1590839;73;1151;-68
2021/07/16 04:29:33;;;;;;;;;;;22.80;50.10;;;;;;1594565;73;660;-68
2021/07/16 04:31:34;;;;;;;;;;;22.80;50.10;;;;;;1591549;73;781;-68
2021/07/16 04:33:36;;;;;;;;;;;22.70;50.20;;;;;;1584977;73;790;-69
2021/07/16 04:35:39;;;;;;;;;;;22.80;50.20;;;;;;1595260;73;1933;-69
2021/07/16 04:37:42;;;;;;;;;;;22.80;50.20;;;;;;1596005;73;1176;-69
2021/07/16 04:39:44;;;;;;;;;;;22.80;50.20;;;;;;1596041;73;657;-68
2021/07/16 04:41:45;;;;;;;;;;;22.80;50.20;;;;;;1596288;73;643;-65
2021/07/16 04:43:47;;;;;;;;;;;22.80;50.20;;;;;;1583331;73;781;-68
2021/07/16 04:45:49;;;;;;;;;;;22.80;50.20;;;;;;1595774;73;720;-69
2021/07/16 04:47:51;;;;;;;;;;;22.80;50.20;;;;;;1596398;73;1119;-69
2021/07/16 04:49:53;;;;;;;;;;;22.80;50.10;;;;;;1588896;73;831;-69
2021/07/16 04:51:55;;;;;;;;;;;22.80;50.10;;;;;;1586016;73;782;-68
2021/07/16 04:53:57;;;;;;;;;;;22.80;50.20;;;;;;1591640;73;776;-68
2021/07/16 04:55:59;;;;;;;;;;;22.80;50.10;;;;;;1591916;73;1952;-68
2021/07/16 04:58:01;;;;;;;;;;;22.70;50.20;;;;;;1595637;73;1125;-68
2021/07/16 05:00:07;;;;;;;;;;;22.80;50.20;;;;;;1586076;73;710;-69
2021/07/16 05:02:08;;;;;;;;;;;22.80;50.20;;;;;;1590210;73;827;-69
2021/07/16 05:04:10;;;;;;;;;;;22.80;50.10;;;;;;1595064;73;693;-68
2021/07/16 05:06:12;;;;;;;;;;;22.80;50.20;;;;;;1588077;73;787;-68
2021/07/16 05:08:14;;;;;;;;;;;22.80;50.20;;;;;;1596192;73;1091;-68
2021/07/16 05:10:16;;;;;;;;;;;22.80;50.20;;;;;;1582774;73;717;-69
2021/07/16 05:12:18;;;;;;;;;;;22.80;50.20;;;;;;1588594;73;800;-68
2021/07/16 05:14:20;;;;;;;;;;;22.80;50.20;;;;;;1590819;73;804;-68
2021/07/16 05:16:21;;;;;;;;;;;22.80;50.10;;;;;;1585063;73;1941;-68
2021/07/16 05:18:23;;;;;;;;;;;22.80;50.20;;;;;;1592443;73;720;-68
2021/07/16 05:20:25;;;;;;;;;;;22.80;50.10;;;;;;1593533;73;719;-69
2021/07/16 05:22:27;;;;;;;;;;;22.80;50.20;;;;;;1585808;73;673;-68
2021/07/16 05:24:30;;;;;;;;;;;22.80;50.20;;;;;;1587981;73;806;-69
2021/07/16 05:26:32;;;;;;;;;;;22.70;50.10;;;;;;1594001;73;1136;-68
2021/07/16 05:28:34;;;;;;;;;;;22.80;50.20;;;;;;1596472;73;759;-68
2021/07/16 05:30:36;;;;;;;;;;;22.80;50.20;;;;;;1590987;73;802;-69
2021/07/16 05:32:38;;;;;;;;;;;22.80;50.10;;;;;;1595433;73;739;-69
2021/07/16 05:34:40;;;;;;;;;;;22.70;50.20;;;;;;1595575;73;821;-68
2021/07/16 05:36:41;;;;;;;;;;;22.80;50.20;;;;;;1595352;73;1941;-68
2021/07/16 05:38:43;;;;;;;;;;;22.80;50.20;;;;;;1588830;73;641;-68
2021/07/16 05:40:45;;;;;;;;;;;22.80;50.20;;;;;;1587070;73;766;-68
2021/07/16 05:42:47;;;;;;;;;;;22.70;50.20;;;;;;1595516;73;770;-68
2021/07/16 05:44:50;;;;;;;;;;;22.80;50.10;;;;;;1596053;73;672;-68
2021/07/16 05:46:52;;;;;;;;;;;22.80;50.20;;;;;;1588764;73;1190;-69
2021/07/16 05:48:54;;;;;;;;;;;22.80;50.20;;;;;;1595618;73;778;-68
2021/07/16 05:50:56;;;;;;;;;;;22.70;50.20;;;;;;1584261;73;722;-68
2021/07/16 05:52:58;;;;;;;;;;;22.80;50.20;;;;;;1586884;73;759;-68
2021/07/16 05:55:00;;;;;;;;;;;22.80;50.20;;;;;;1595648;73;770;-68
2021/07/16 05:57:02;;;;;;;;;;;22.70;50.20;;;;;;1596103;73;1929;-68
2021/07/16 05:59:04;;;;;;;;;;;22.80;50.10;;;;;;1594209;73;683;-68
2021/07/16 06:01:06;;;;;;;;;;;22.80;50.10;;;;;;1595632;73;785;-69
2021/07/16 06:03:08;;;;;;;;;;;22.80;50.10;;;;;;1595609;73;769;-69
2021/07/16 06:05:11;;;;;;;;;;;22.70;50.20;;;;;;1588073;73;786;-68
2021/07/16 06:07:13;;;;;;;;;;;22.80;50.10;;;;;;1595464;73;1078;-65
2021/07/16 06:09:14;;;;;;;;;;;22.80;50.10;;;;;;1593635;73;784;-68
2021/07/16 06:11:16;;;;;;;;;;;22.80;50.10;;;;;;1578131;73;736;-69
2021/07/16 06:13:18;;;;;;;;;;;22.80;50.20;;;;;;1596225;73;815;-68
2021/07/16 06:15:20;;;;;;;;;;;22.80;50.20;;;;;;1596329;73;1940;-68
2021/07/16 06:17:22;;;;;;;;;;;22.80;50.20;;;;;;1583743;73;1179;-68
2021/07/16 06:19:24;;;;;;;;;;;22.80;50.10;;;;;;1583988;73;801;-68
2021/07/16 06:21:26;;;;;;;;;;;22.80;50.20;;;;;;1588828;73;700;-68
2021/07/16 06:23:28;;;;;;;;;;;22.80;50.10;;;;;;1596173;73;715;-68
2021/07/16 06:25:30;;;;;;;;;;;22.80;50.10;;;;;;1588761;73;794;-68
2021/07/16 06:27:32;;;;;;;;;;;22.80;50.20;;;;;;1594338;73;1148;-68
2021/07/16 06:29:34;;;;;;;;;;;22.80;50.20;;;;;;1595381;73;669;-69
2021/07/16 06:31:35;;;;;;;;;;;22.80;50.20;;;;;;1593059;73;778;-69
2021/07/16 06:33:37;;;;;;;;;;;22.80;50.20;;;;;;1595726;73;694;-69
2021/07/16 06:35:39;;;;;;;;;;;22.80;50.20;;;;;;1594414;73;1922;-68
2021/07/16 06:37:41;;;;;;;;;;;22.70;50.20;;;;;;1588278;73;1107;-67
2021/07/16 06:39:43;;;;;;;;;;;22.80;50.20;;;;;;1595862;73;768;-68
2021/07/16 06:41:45;;;;;;;;;;;22.80;50.20;;;;;;1595923;73;767;-65
2021/07/16 06:43:47;;;;;;;;;;;22.70;50.10;;;;;;1594447;73;779;-68
2021/07/16 06:45:49;;;;;;;;;;;22.80;50.20;;;;;;1587108;73;722;-69
2021/07/16 06:47:51;;;;;;;;;;;22.70;50.20;;;;;;1588437;73;1220;-69
2021/07/16 06:49:53;;;;;;;;;;;22.80;50.20;;;;;;1595662;73;795;-68
2021/07/16 06:51:55;;;;;;;;;;;22.80;50.20;;;;;;1595197;73;779;-68
2021/07/16 06:53:58;;;;;;;;;;;22.80;50.20;;;;;;1585835;73;795;-68
2021/07/16 06:55:59;;;;;;;;;;;22.80;50.20;;;;;;1583960;73;1934;-68
2021/07/16 06:58:01;;;;;;;;;;;22.80;50.20;;;;;;1595785;73;1130;-69
2021/07/16 07:00:03;;;;;;;;;;;22.80;50.20;;;;;;1596347;73;786;-68
2021/07/16 07:02:06;;;;;;;;;;;22.80;50.20;;;;;;1594403;73;729;-68
2021/07/16 07:04:08;;;;;;;;;;;22.80;50.20;;;;;;1587458;73;804;-69
2021/07/16 07:06:09;;;;;;;;;;;22.80;50.20;;;;;;1595695;73;665;-68
2021/07/16 07:08:12;;;;;;;;;;;22.80;50.20;;;;;;1596389;73;1088;-68
2021/07/16 07:10:14;;;;;;;;;;;22.80;50.20;;;;;;1595924;73;753;-68
2021/07/16 07:12:16;;;;;;;;;;;22.80;50.20;;;;;;1591604;73;868;-68
2021/07/16 07:14:17;;;;;;;;;;;22.80;50.20;;;;;;1593651;73;789;-68
2021/07/16 07:16:19;;;;;;;;;;;22.80;50.10;;;;;;1595381;73;1940;-68
2021/07/16 07:18:21;;;;;;;;;;;22.80;50.20;;;;;;1589120;71;2038;-71
2021/07/16 07:20:23;;;;;;;;;;;22.80;50.20;;;;;;1577516;75;646;-71
2021/07/16 07:22:25;;;;;;;;;;;22.80;50.20;;;;;;1581307;75;579;-73
2021/07/16 07:24:27;;;;;;;;;;;22.80;50.10;;;;;;1573679;75;761;-71
2021/07/16 07:26:32;;;;;;;;;;;22.80;50.10;;;;;;1580204;75;733;-71
2021/07/16 07:28:32;;;;;;;;;;;22.80;50.20;;;;;;1580263;75;1589;-72
2021/07/16 07:30:34;;;;;;;;;;;22.80;50.20;;;;;;1581503;75;651;-72
2021/07/16 07:32:36;;;;;;;;;;;22.80;50.10;;;;;;1573854;75;707;-71
2021/07/16 07:34:39;;;;;;;;;;;22.80;50.20;;;;;;1578230;75;715;-73
2021/07/16 07:36:40;;;;;;;;;;;22.70;50.20;;;;;;1581403;75;1902;-72
2021/07/16 07:38:44;;;;;;;;;;;22.80;50.20;;;;;;1581538;75;1176;-72
2021/07/16 07:40:46;;;;;;;;;;;22.80;50.10;;;;;;1580068;75;784;-72
2021/07/16 07:42:48;;;;;;;;;;;22.80;50.20;;;;;;1572474;75;702;-71
2021/07/16 07:44:49;;;;;;;;;;;22.80;50.20;;;;;;1581410;75;690;-72
2021/07/16 07:46:51;;;;;;;;;;;22.80;50.10;;;;;;1580022;75;1085;-72
2021/07/16 07:48:53;;;;;;;;;;;22.80;50.10;;;;;;1581403;75;777;-73
2021/07/16 07:50:57;;;;;;;;;;;22.70;50.20;;;;;;1574966;75;653;-72
2021/07/16 07:52:59;;;;;;;;;;;22.70;50.20;;;;;;1575463;75;747;-74
2021/07/16 07:55:00;;;;;;;;;;;22.80;50.20;;;;;;1572534;75;726;-72
2021/07/16 07:57:02;;;;;;;;;;;22.80;50.10;;;;;;1581523;75;1933;-72
2021/07/16 07:59:05;;;;;;;;;;;22.80;50.10;;;;;;1581440;75;693;-71
2021/07/16 08:01:06;;;;;;;;;;;22.80;50.10;;;;;;1573305;75;683;-72
2021/07/16 08:03:10;;;;;;;;;;;22.70;50.20;;;;;;1575707;75;700;-73
2021/07/16 08:05:12;;;;;;;;;;;22.80;50.10;;;;;;1581385;75;702;-73
2021/07/16 08:07:14;;;;;;;;;;;22.80;50.10;;;;;;1581071;75;1153;-72
2021/07/16 08:09:16;;;;;;;;;;;22.80;50.10;;;;;;1569823;75;925;-73
2021/07/16 08:11:17;;;;;;;;;;;22.70;50.10;;;;;;1572560;75;810;-72
2021/07/16 08:13:19;;;;;;;;;;;22.80;50.10;;;;;;1581291;75;723;-72
2021/07/16 08:15:21;;;;;;;;;;;22.80;50.10;;;;;;1577482;75;813;-72
2021/07/16 08:17:23;;;;;;;;;;;22.80;50.10;;;;;;1572196;75;1932;-72
2021/07/16 08:19:25;;;;;;;;;;;22.80;50.10;;;;;;1595732;73;836;-72
2021/07/16 08:21:27;;;;;;;;;;;22.80;50.20;;;;;;1610426;73;651;-73
2021/07/16 08:23:29;;;;;;;;;;;22.80;50.10;;;;;;1610154;73;709;-74
2021/07/16 08:25:31;;;;;;;;;;;22.80;50.10;;;;;;1602770;73;743;-72
2021/07/16 08:27:32;;;;;;;;;;;22.80;50.10;;;;;;1611137;73;1186;-73
2021/07/16 08:29:34;;;;;;;;;;;22.80;50.10;;;;;;1608591;73;726;-72
2021/07/16 08:31:36;;;;;;;;;;;22.80;50.10;;;;;;1610268;73;712;-70
2021/07/16 08:33:38;;;;;;;;;;;22.80;50.20;;;;;;1608280;73;724;-72
2021/07/16 08:35:40;;;;;;;;;;;22.80;50.10;;;;;;1610169;73;586;-72
2021/07/16 08:37:42;;;;;;;;;;;22.80;50.10;;;;;;1606191;73;1940;-72
2021/07/16 08:39:44;;;;;;;;;;;22.80;50.20;;;;;;1610337;73;712;-73
2021/07/16 08:41:46;;;;;;;;;;;22.80;50.10;;;;;;1608795;73;703;-74
2021/07/16 08:43:47;;;;;;;;;;;22.90;50.20;;;;;;1610201;73;696;-71
2021/07/16 08:45:51;;;;;;;;;;;22.80;50.10;;;;;;1611361;73;716;-72
2021/07/16 08:47:52;;;;;;;;;;;22.80;50.10;;;;;;1600118;73;1128;-73
2021/07/16 08:49:54;;;;;;;;;;;22.80;50.10;;;;;;1610322;73;802;-74
2021/07/16 08:51:56;;;;;;;;;;;22.80;50.10;;;;;;1608614;73;787;-72
2021/07/16 08:53:58;;;;;;;;;;;22.80;50.10;;;;;;1610347;73;700;-72
2021/07/16 08:56:00;;;;;;;;;;;22.80;50.10;;;;;;1610504;73;739;-70
2021/07/16 08:58:05;;;;;;;;;;;22.80;50.00;;;;;;1596274;73;1921;-71
2021/07/16 09:00:08;;;;;;;;;;;22.80;50.10;;;;;;1602608;73;786;-72
2021/07/16 09:02:11;;;;;;;;;;;22.80;50.10;;;;;;1598543;73;732;-71
2021/07/16 09:04:13;;;;;;;;;;;22.90;50.20;;;;;;1609780;73;740;-72
2021/07/16 09:06:15;;;;;;;;;;;22.70;50.10;;;;;;1605597;73;731;-72
2021/07/16 09:08:17;;;;;;;;;;;22.80;50.00;;;;;;1597176;73;1134;-72
2021/07/16 09:10:20;;;;;;;;;;;22.80;50.10;;;;;;1610197;73;703;-73
2021/07/16 09:12:22;;;;;;;;;;;22.80;50.00;;;;;;1610096;73;688;-73
2021/07/16 09:14:28;;;;;;;;;;;22.80;50.10;;;;;;1609789;73;709;-72
2021/07/16 09:16:30;;;;;;;;;;;22.70;50.10;;;;;;1610223;73;1905;-72
2021/07/16 09:18:38;;;;;;;;;;;22.80;50.00;;;;;;1607049;73;1120;-72
2021/07/16 09:20:35;;;;;;;;;;;22.80;50.10;;;;;;1609124;73;973;-71
2021/07/16 09:22:37;;;;;;;;;;;22.80;50.00;;;;;;1609794;73;719;-73
2021/07/16 09:24:40;;;;;;;;;;;22.80;50.00;;;;;;1608664;73;788;-73
2021/07/16 09:26:43;;;;;;;;;;;22.80;50.00;;;;;;1602439;73;673;-73
2021/07/16 09:28:45;;;;;;;;;;;22.80;50.00;;;;;;1608272;73;1073;-72
2021/07/16 09:30:47;;;;;;;;;;;22.90;50.20;;;;;;1610282;73;732;-74
2021/07/16 09:32:49;;;;;;;;;;;22.80;50.00;;;;;;1610186;73;712;-72
2021/07/16 09:34:51;;;;;;;;;;;22.80;50.00;;;;;;1600695;73;748;-73
2021/07/16 09:36:53;;;;;;;;;;;22.80;50.00;;;;;;1605142;73;1940;-72
2021/07/16 09:39:00;;;;;;;;;;;22.90;50.10;;;;;;1610365;73;704;-73
2021/07/16 09:41:05;;;;;;;;;;;22.90;50.20;;;;;;1606620;73;1046;-73
2021/07/16 09:43:09;;;;;;;;;;;22.90;50.10;;;;;;1606239;73;1069;-72
2021/07/16 09:45:13;;;;;;;;;;;22.90;50.20;;;;;;1609244;73;733;-71
2021/07/16 09:47:16;;;;;;;;;;;22.80;50.00;;;;;;1610289;73;1236;-73
2021/07/16 09:49:18;;;;;;;;;;;22.80;50.00;;;;;;1600899;73;693;-74
2021/07/16 09:51:27;;;;;;;;;;;22.80;50.00;;;;;;1606366;73;811;-73
2021/07/16 09:53:30;;;;;;;;;;;22.80;50.10;;;;;;1607696;73;689;-72
2021/07/16 09:55:32;;;;;;;;;;;22.80;50.00;;;;;;1610172;73;712;-72
2021/07/16 09:57:39;;;;;;;;;;;22.80;50.00;;;;;;1609829;73;1901;-73
2021/07/16 09:59:41;;;;;;;;;;;22.80;50.00;;;;;;1605415;73;1033;-75
2021/07/16 10:01:44;;;;;;;;;;;22.90;50.20;;;;;;1604922;73;780;-73
2021/07/16 10:03:45;;;;;;;;;;;22.80;50.00;;;;;;1606603;73;707;-73
2021/07/16 10:05:50;;;;;;;;;;;22.90;50.10;;;;;;1610430;73;850;-74
2021/07/16 10:07:52;;;;;;;;;;;22.90;50.10;;;;;;1607166;73;1144;-73
2021/07/16 10:09:54;;;;;;;;;;;22.90;50.10;;;;;;1610362;73;715;-72
2021/07/16 10:11:57;;;;;;;;;;;22.80;50.00;;;;;;1609518;73;799;-72
2021/07/16 10:13:59;;;;;;;;;;;22.80;50.00;;;;;;1610317;73;677;-73
2021/07/16 10:16:01;;;;;;;;;;;22.80;50.00;;;;;;1604442;73;722;-74
2021/07/16 10:18:07;;;;;;;;;;;22.80;50.00;;;;;;1611148;73;1937;-73
2021/07/16 10:20:11;;;;;;;;;;;22.80;50.00;;;;;;1603326;73;996;-73
2021/07/16 10:22:13;;;;;;;;;;;22.80;50.00;;;;;;1607446;73;711;-73
2021/07/16 10:24:17;;;;;;;;;;;22.90;50.10;;;;;;1596590;73;773;-73
2021/07/16 10:26:19;;;;;;;;;;;22.80;49.90;;;;;;1610354;73;822;-73
2021/07/16 10:28:31;;;;;;;;;;;22.90;50.10;;;;;;1596359;73;1129;-73
2021/07/16 10:30:34;;;;;;;;;;;22.90;50.10;;;;;;1610797;73;743;-73
2021/07/16 10:32:45;;;;;;;;;;;22.80;50.00;;;;;;1610197;73;806;-72
2021/07/16 10:34:47;;;;;;;;;;;22.90;50.00;;;;;;1607941;73;682;-74
2021/07/16 10:36:50;;;;;;;;;;;22.80;49.90;;;;;;1600877;73;1152;-73
2021/07/16 10:38:52;;;;;;;;;;;22.90;50.00;;;;;;1596952;73;770;-73
2021/07/16 10:40:53;;;;;;;;;;;22.90;50.10;;;;;;1594787;73;711;-73
2021/07/16 10:42:55;;;;;;;;;;;22.90;50.10;;;;;;1610195;73;741;-72
2021/07/16 10:44:58;;;;;;;;;;;22.80;50.00;;;;;;1610320;73;710;-72
2021/07/16 10:47:00;;;;;;;;;;;22.80;49.90;;;;;;1606867;73;1159;-73
2021/07/16 10:49:03;;;;;;;;;;;22.90;50.00;;;;;;1605533;73;703;-74
2021/07/16 10:51:07;;;;;;;;;;;22.80;49.90;;;;;;1605864;73;712;-72
2021/07/16 10:53:11;;;;;;;;;;;22.80;50.00;;;;;;1615799;73;1455;-74
2021/07/16 10:55:12;;;;;;;;;;;22.90;50.10;;;;;;1599223;73;1139;-72
2021/07/16 10:57:14;;;;;;;;;;;22.90;50.00;;;;;;1609436;73;1944;-71
2021/07/16 10:59:35;;;;;;;;;;;22.90;50.10;;;;;;1600118;73;666;-74
2021/07/16 11:01:43;;;;;;;;;;;22.90;50.00;;;;;;1598362;73;697;-70
2021/07/16 11:03:45;;;;;;;;;;;22.80;50.00;;;;;;1608238;73;676;-74
2021/07/16 11:05:49;;;;;;;;;;;22.90;50.10;;;;;;1610381;73;763;-73
2021/07/16 11:07:51;;;;;;;;;;;22.80;50.00;;;;;;1604903;73;1172;-72
2021/07/16 11:09:52;;;;;;;;;;;22.90;50.10;;;;;;1603519;73;714;-73
2021/07/16 11:11:54;;;;;;;;;;;22.80;50.00;;;;;;1610245;73;689;-72
2021/07/16 11:13:57;;;;;;;;;;;22.90;50.00;;;;;;1610359;73;675;-72
2021/07/16 11:15:59;;;;;;;;;;;22.90;50.10;;;;;;1607489;73;733;-72
2021/07/16 11:18:01;;;;;;;;;;;22.90;50.00;;;;;;1606368;73;1945;-72
2021/07/16 11:20:13;;;;;;;;;;;22.90;50.00;;;;;;1606591;73;766;-72
2021/07/16 11:22:16;;;;;;;;;;;22.80;49.90;;;;;;1610186;73;806;-72
2021/07/16 11:24:21;;;;;;;;;;;22.90;50.00;;;;;;1578835;74;1123;-71
2021/07/16 11:26:23;;;;;;;;;;;22.80;49.90;;;;;;1606322;73;744;-73
2021/07/16 11:28:25;;;;;;;;;;;22.90;50.00;;;;;;1598526;73;1133;-72
2021/07/16 11:30:27;;;;;;;;;;;22.80;49.90;;;;;;1610343;73;737;-74
2021/07/16 11:32:29;;;;;;;;;;;22.80;49.90;;;;;;1610158;73;782;-72
2021/07/16 11:34:30;;;;;;;;;;;22.90;50.10;;;;;;1603038;73;692;-72
2021/07/16 11:36:32;;;;;;;;;;;22.80;49.90;;;;;;1603609;73;713;-72
2021/07/16 11:38:34;;;;;;;;;;;22.90;50.00;;;;;;1610050;73;1954;-72
2021/07/16 11:40:37;;;;;;;;;;;22.90;50.00;;;;;;1609699;73;736;-72
2021/07/16 11:42:44;;;;;;;;;;;22.90;50.00;;;;;;1610223;73;688;-73
2021/07/16 11:44:47;;;;;;;;;;;22.90;50.00;;;;;;1602814;73;720;-72
2021/07/16 11:46:52;;;;;;;;;;;22.90;50.00;;;;;;1608632;73;1143;-71
2021/07/16 11:48:53;;;;;;;;;;;22.80;49.80;;;;;;1610081;73;1124;-73
2021/07/16 11:50:55;;;;;;;;;;;22.90;50.00;;;;;;1606768;73;778;-72
2021/07/16 11:52:57;;;;;;;;;;;22.90;50.00;;;;;;1603765;73;728;-72
2021/07/16 11:55:06;;;;;;;;;;;22.80;49.90;;;;;;1612722;73;694;-72
2021/07/16 11:57:08;;;;;;;;;;;22.90;50.00;;;;;;1611476;73;1168;-71
2021/07/16 11:59:22;;;;;;;;;;;22.90;50.00;;;;;;1610320;73;1932;-72
2021/07/16 12:01:24;;;;;;;;;;;22.90;50.00;;;;;;1602337;73;709;-72
2021/07/16 12:03:26;;;;;;;;;;;22.90;50.00;;;;;;1604209;73;724;-71
2021/07/16 12:05:28;;;;;;;;;;;22.90;50.00;;;;;;1580358;74;1182;-71
2021/07/16 12:07:37;;;;;;;;;;;22.90;50.00;;;;;;1608986;73;1104;-71
2021/07/16 12:09:41;;;;;;;;;;;22.90;50.00;;;;;;1612988;73;709;-71